createdAt,value
2018-12-22T00:00:25.178Z,3.20
2018-12-22T00:02:54.260Z,2.50
2018-12-22T00:05:23.502Z,3.90
2018-12-22T00:07:52.586Z,4.23
2018-12-22T00:10:22.463Z,4.60
2018-12-22T00:12:51.663Z,6.57
2018-12-22T00:15:20.997Z,5.30
2018-12-22T00:17:50.135Z,2.37
2018-12-22T00:20:19.869Z,3.93
2018-12-22T00:22:49.607Z,10.23
2018-12-22T00:25:18.886Z,5.23
2018-12-22T00:27:48.239Z,2.50
2018-12-22T00:30:17.661Z,6.20
2018-12-22T00:32:47.379Z,6.77
2018-12-22T00:35:16.608Z,3.93
2018-12-22T00:37:45.746Z,6.27
2018-12-22T00:40:14.885Z,8.53
2018-12-22T00:42:43.901Z,6.57
2018-12-22T00:45:13.066Z,7.03
2018-12-22T00:47:42.170Z,4.50
2018-12-22T00:50:11.324Z,6.13
2018-12-22T00:52:40.394Z,4.53
2018-12-22T00:55:09.527Z,6.53
2018-12-22T00:57:38.621Z,3.30
2018-12-22T01:00:08.881Z,10.70
2018-12-22T01:02:37.982Z,5.83
2018-12-22T01:05:07.439Z,7.23
2018-12-22T01:07:36.444Z,6.97
2018-12-22T01:10:07.824Z,5.80
2018-12-22T01:12:36.979Z,3.30
2018-12-22T01:15:07.192Z,7.93
2018-12-22T01:17:36.336Z,3.80
2018-12-22T01:20:07.344Z,5.20
2018-12-22T01:22:36.488Z,9.90
2018-12-22T01:25:06.329Z,11.60
2018-12-22T01:27:35.500Z,8.80
2018-12-22T01:30:05.338Z,5.90
2018-12-22T01:32:34.506Z,3.50
2018-12-22T01:35:03.936Z,2.43
2018-12-22T01:37:33.175Z,5.47
2018-12-22T01:40:02.431Z,4.80
2018-12-22T01:42:31.690Z,5.83
2018-12-22T01:45:00.927Z,8.27
2018-12-22T01:47:30.436Z,6.63
2018-12-22T01:49:59.871Z,3.07
2018-12-22T01:52:29.146Z,5.00
2018-12-22T01:54:58.330Z,3.20
2018-12-22T01:57:27.436Z,2.17
2018-12-22T01:59:56.516Z,4.97
2018-12-22T02:02:25.656Z,4.80
2018-12-22T02:04:54.798Z,3.27
2018-12-22T02:07:23.865Z,6.27
2018-12-22T02:09:52.873Z,8.77
2018-12-22T02:12:21.927Z,3.40
2018-12-22T02:14:51.023Z,6.60
2018-12-22T02:17:20.233Z,3.70
2018-12-22T02:19:49.321Z,3.93
2018-12-22T02:22:18.415Z,8.20
2018-12-22T02:24:47.453Z,2.30
2018-12-22T02:27:16.538Z,2.30
2018-12-22T02:29:45.648Z,3.03
2018-12-22T02:32:14.743Z,3.33
2018-12-22T02:34:43.973Z,7.40
2018-12-22T02:37:13.070Z,2.27
2018-12-22T02:39:42.254Z,7.33
2018-12-22T02:42:11.509Z,3.90
2018-12-22T02:44:40.854Z,6.70
2018-12-22T02:47:10.127Z,6.53
2018-12-22T02:49:39.654Z,5.03
2018-12-22T02:52:09.003Z,1.90
2018-12-22T02:54:38.270Z,8.10
2018-12-22T02:57:07.482Z,3.57
2018-12-22T02:59:36.591Z,4.43
2018-12-22T03:02:05.780Z,5.50
2018-12-22T03:04:34.850Z,4.93
2018-12-22T03:07:03.970Z,3.30
2018-12-22T03:09:33.192Z,4.33
2018-12-22T03:12:02.348Z,4.07
2018-12-22T03:14:31.378Z,2.10
2018-12-22T03:17:00.405Z,9.87
2018-12-22T03:19:29.436Z,7.47
2018-12-22T03:21:58.458Z,4.93
2018-12-22T03:24:27.446Z,6.80
2018-12-22T03:26:56.586Z,7.77
2018-12-22T03:29:25.700Z,12.63
2018-12-22T03:31:54.861Z,5.90
2018-12-22T03:34:24.094Z,9.40
2018-12-22T03:36:53.244Z,10.23
2018-12-22T03:39:22.450Z,9.30
2018-12-22T03:41:51.784Z,5.10
2018-12-22T03:44:20.910Z,8.70
2018-12-22T03:46:50.159Z,7.17
2018-12-22T03:49:19.492Z,7.80
2018-12-22T03:51:48.752Z,7.20
2018-12-22T03:54:18.226Z,8.97
2018-12-22T03:56:47.438Z,3.20
2018-12-22T03:59:24.487Z,3.47
2018-12-22T04:01:47.805Z,5.40
2018-12-22T04:04:16.833Z,8.57
2018-12-22T04:06:45.976Z,6.63
2018-12-22T04:09:15.192Z,10.27
2018-12-22T04:11:44.278Z,8.27
2018-12-22T04:14:13.362Z,4.73
2018-12-22T04:16:42.393Z,4.67
2018-12-22T04:19:11.449Z,4.90
2018-12-22T04:21:40.569Z,5.10
2018-12-22T04:24:09.728Z,5.33
2018-12-22T04:26:38.779Z,6.57
2018-12-22T04:29:07.897Z,5.17
2018-12-22T04:31:36.961Z,8.47
2018-12-22T04:34:06.087Z,11.20
2018-12-22T04:36:35.304Z,11.53
2018-12-22T04:39:07.455Z,9.80
2018-12-22T04:41:36.656Z,7.87
2018-12-22T04:44:05.905Z,14.87
2018-12-22T04:46:35.175Z,12.73
2018-12-22T04:49:04.360Z,12.40
2018-12-22T04:51:33.538Z,14.77
2018-12-22T04:54:02.748Z,10.53
2018-12-22T04:56:31.912Z,9.40
2018-12-22T04:59:01.150Z,12.07
2018-12-22T05:01:30.419Z,10.10
2018-12-22T05:03:59.593Z,13.23
2018-12-22T05:06:28.821Z,15.33
2018-12-22T05:08:57.917Z,16.93
2018-12-22T05:11:27.143Z,11.77
2018-12-22T05:13:56.278Z,11.37
2018-12-22T05:16:25.424Z,11.90
2018-12-22T05:18:54.551Z,12.40
2018-12-22T05:21:23.605Z,9.50
2018-12-22T05:23:52.699Z,13.00
2018-12-22T05:26:21.758Z,12.00
2018-12-22T05:28:50.826Z,14.80
2018-12-22T05:31:19.850Z,11.90
2018-12-22T05:33:48.944Z,16.73
2018-12-22T05:36:18.216Z,11.20
2018-12-22T05:38:47.308Z,8.50
2018-12-22T05:41:16.402Z,12.67
2018-12-22T05:43:45.486Z,16.07
2018-12-22T05:46:14.776Z,10.90
2018-12-22T05:48:43.973Z,13.63
2018-12-22T05:51:13.176Z,11.17
2018-12-22T05:53:42.574Z,13.37
2018-12-22T05:56:11.884Z,13.40
2018-12-22T05:58:41.049Z,10.20
2018-12-22T06:01:10.424Z,14.23
2018-12-22T06:03:39.748Z,12.70
2018-12-22T06:06:08.882Z,12.30
2018-12-22T06:08:37.932Z,7.80
2018-12-22T06:11:06.946Z,8.60
2018-12-22T06:13:35.938Z,10.30
2018-12-22T06:16:05.145Z,9.87
2018-12-22T06:18:34.246Z,9.33
2018-12-22T06:21:03.333Z,9.50
2018-12-22T06:23:32.397Z,9.20
2018-12-22T06:26:01.454Z,11.00
2018-12-22T06:28:30.475Z,12.23
2018-12-22T06:30:59.723Z,10.60
2018-12-22T06:33:28.794Z,12.20
2018-12-22T06:35:57.890Z,7.90
2018-12-22T06:38:27.143Z,8.27
2018-12-22T06:40:56.272Z,8.43
2018-12-22T06:43:25.301Z,9.53
2018-12-22T06:45:54.402Z,10.13
2018-12-22T06:48:23.447Z,10.97
2018-12-22T06:50:52.649Z,10.87
2018-12-22T06:53:22.026Z,13.37
2018-12-22T06:55:51.223Z,11.00
2018-12-22T06:58:20.421Z,12.50
2018-12-22T07:00:49.849Z,14.20
2018-12-22T07:03:18.955Z,16.13
2018-12-22T07:05:48.137Z,15.10
2018-12-22T07:08:17.252Z,10.17
2018-12-22T07:10:46.395Z,13.87
2018-12-22T07:13:15.427Z,11.00
2018-12-22T07:15:44.465Z,9.33
2018-12-22T07:18:13.447Z,9.43
2018-12-22T07:20:42.512Z,12.20
2018-12-22T07:23:11.621Z,17.63
2018-12-22T07:25:40.659Z,15.20
2018-12-22T07:28:09.649Z,12.47
2018-12-22T07:30:38.652Z,13.67
2018-12-22T07:33:07.702Z,12.23
2018-12-22T07:35:36.693Z,15.17
2018-12-22T07:38:05.856Z,15.03
2018-12-22T07:40:34.839Z,11.57
2018-12-22T07:43:04.064Z,10.77
2018-12-22T07:45:33.091Z,10.17
2018-12-22T07:48:02.351Z,12.70
2018-12-22T07:50:31.427Z,12.37
2018-12-22T07:53:01.332Z,12.77
2018-12-22T07:55:30.433Z,11.80
2018-12-22T07:57:59.693Z,13.33
2018-12-22T08:00:34.781Z,16.63
2018-12-22T08:03:00.075Z,12.73
2018-12-22T08:05:29.277Z,12.63
2018-12-22T08:07:59.220Z,11.97
2018-12-22T08:10:28.629Z,10.23
2018-12-22T08:12:57.655Z,13.10
2018-12-22T08:15:26.687Z,11.70
2018-12-22T08:17:55.713Z,14.00
2018-12-22T08:20:24.801Z,11.17
2018-12-22T08:22:53.803Z,9.90
2018-12-22T08:25:22.947Z,11.03
2018-12-22T08:27:51.993Z,9.87
2018-12-22T08:30:21.083Z,10.47
2018-12-22T08:32:50.153Z,10.03
2018-12-22T08:35:19.305Z,10.57
2018-12-22T08:37:48.322Z,11.57
2018-12-22T08:40:17.398Z,11.03
2018-12-22T08:42:46.420Z,11.73
2018-12-22T08:45:15.498Z,9.57
2018-12-22T08:47:44.635Z,14.67
2018-12-22T08:50:14.234Z,9.43
2018-12-22T08:52:43.244Z,11.90
2018-12-22T08:55:12.450Z,11.47
2018-12-22T08:57:41.950Z,12.57
2018-12-22T09:00:13.057Z,9.83
2018-12-22T09:02:42.184Z,9.60
2018-12-22T09:05:11.323Z,11.40
2018-12-22T09:07:40.595Z,9.37
2018-12-22T09:10:10.745Z,9.73
2018-12-22T09:12:39.853Z,9.97
2018-12-22T09:15:09.947Z,12.23
2018-12-22T09:17:39.265Z,12.13
2018-12-22T09:20:10.641Z,11.00
2018-12-22T09:22:40.249Z,13.53
2018-12-22T09:25:12.550Z,11.00
2018-12-22T09:27:42.276Z,12.77
2018-12-22T09:30:13.396Z,8.40
2018-12-22T09:32:42.740Z,10.43
2018-12-22T09:35:12.392Z,12.60
2018-12-22T09:37:41.568Z,8.13
2018-12-22T09:40:10.777Z,11.30
2018-12-22T09:42:39.872Z,8.83
2018-12-22T09:45:09.604Z,10.17
2018-12-22T09:47:38.602Z,12.87
2018-12-22T09:50:11.705Z,11.37
2018-12-22T09:52:40.799Z,11.27
2018-12-22T09:55:09.998Z,8.17
2018-12-22T09:57:39.051Z,15.00
2018-12-22T10:00:11.937Z,10.90
2018-12-22T10:02:40.965Z,13.80
2018-12-22T10:05:10.291Z,11.00
2018-12-22T10:07:39.320Z,10.10
2018-12-22T10:10:15.088Z,12.17
2018-12-22T10:12:44.169Z,12.60
2018-12-22T10:15:13.256Z,12.03
2018-12-22T10:17:42.389Z,11.40
2018-12-22T10:20:11.396Z,13.13
2018-12-22T10:22:40.393Z,12.40
2018-12-22T10:25:11.347Z,14.90
2018-12-22T10:27:40.394Z,12.83
2018-12-22T10:30:15.056Z,12.33
2018-12-22T10:32:44.157Z,8.97
2018-12-22T10:35:19.856Z,10.17
2018-12-22T10:37:48.878Z,11.47
2018-12-22T10:40:17.940Z,14.20
2018-12-22T10:42:47.046Z,12.60
2018-12-22T10:45:16.148Z,11.90
2018-12-22T10:47:45.276Z,13.40
2018-12-22T10:50:14.299Z,19.23
2018-12-22T10:52:43.445Z,13.07
2018-12-22T10:55:12.611Z,13.00
2018-12-22T10:57:41.862Z,10.60
2018-12-22T11:00:16.457Z,12.13
2018-12-22T11:02:45.480Z,16.93
2018-12-22T11:05:16.392Z,14.37
2018-12-22T11:07:45.947Z,11.13
2018-12-22T11:10:22.221Z,13.67
2018-12-22T11:12:53.327Z,11.17
2018-12-22T11:15:27.327Z,6.80
2018-12-22T11:17:56.510Z,11.10
2018-12-22T11:24:00.581Z,13.33
2018-12-22T11:26:29.671Z,11.97
2018-12-22T11:28:58.717Z,8.70
2018-12-22T11:31:34.801Z,7.93
2018-12-22T11:33:58.727Z,9.83
2018-12-22T11:36:27.924Z,12.93
2018-12-22T11:38:56.925Z,10.73
2018-12-22T11:41:26.011Z,12.67
2018-12-22T11:43:55.227Z,10.43
2018-12-22T11:46:24.582Z,10.50
2018-12-22T11:49:37.464Z,12.37
2018-12-22T11:52:06.772Z,11.77
2018-12-22T11:54:35.970Z,12.23
2018-12-22T11:57:05.312Z,11.53
2018-12-22T11:59:34.648Z,13.20
2018-12-22T12:02:09.637Z,15.13
2018-12-22T12:04:35.114Z,14.90
2018-12-22T12:07:04.386Z,17.23
2018-12-22T12:09:33.620Z,16.03
2018-12-22T12:12:02.814Z,23.67
2018-12-22T12:14:33.022Z,18.97
2018-12-22T12:22:50.560Z,19.03
2018-12-22T12:25:19.674Z,17.83
2018-12-22T12:27:48.772Z,25.00
2018-12-22T12:30:17.862Z,22.83
2018-12-22T12:32:46.936Z,23.33
2018-12-22T12:35:16.077Z,21.00
2018-12-22T12:37:45.824Z,17.93
2018-12-22T12:40:15.049Z,17.60
2018-12-22T12:42:44.323Z,20.40
2018-12-22T12:45:16.286Z,20.93
2018-12-22T12:47:46.759Z,16.73
2018-12-22T12:50:20.096Z,14.73
2018-12-22T12:52:55.627Z,16.27
2018-12-22T12:55:24.638Z,14.07
2018-12-22T12:57:53.759Z,16.27
2018-12-22T13:00:22.911Z,18.10
2018-12-22T13:02:51.992Z,19.73
2018-12-22T13:05:21.211Z,19.43
2018-12-22T13:07:50.449Z,28.77
2018-12-22T13:10:19.831Z,20.37
2018-12-22T13:13:02.985Z,19.40
2018-12-22T13:15:32.045Z,23.30
2018-12-22T13:18:01.111Z,20.20
2018-12-22T13:20:30.351Z,18.10
2018-12-22T13:22:59.416Z,21.10
2018-12-22T13:25:28.489Z,18.47
2018-12-22T13:27:57.717Z,20.20
2018-12-22T13:30:27.082Z,35.60
2018-12-22T13:32:57.913Z,30.63
2018-12-22T13:35:28.254Z,27.97
2018-12-22T13:53:57.900Z,29.77
2018-12-22T13:56:31.495Z,32.83
2018-12-22T13:59:01.029Z,26.23
2018-12-22T14:01:34.071Z,32.83
2018-12-22T14:04:03.415Z,25.57
2018-12-22T14:06:39.551Z,24.57
2018-12-22T14:09:09.911Z,28.03
2018-12-22T14:11:40.360Z,29.23
2018-12-22T14:14:13.109Z,27.13
2018-12-22T14:16:52.549Z,26.57
2018-12-22T14:19:21.863Z,25.40
2018-12-22T14:21:51.669Z,23.10
2018-12-22T14:24:34.914Z,27.87
2018-12-22T14:27:04.367Z,21.33
2018-12-22T14:29:33.593Z,23.07
2018-12-22T14:32:02.842Z,22.27
2018-12-22T14:34:41.609Z,26.20
2018-12-22T14:37:10.853Z,29.43
2018-12-22T14:39:39.951Z,27.93
2018-12-22T14:42:09.107Z,29.73
2018-12-22T14:44:38.495Z,23.33
2018-12-22T14:47:08.370Z,28.87
2018-12-22T14:49:37.552Z,26.37
2018-12-22T14:52:06.759Z,24.10
2018-12-22T14:54:36.098Z,28.40
2018-12-22T14:57:05.405Z,32.03
2018-12-22T14:59:34.852Z,28.20
2018-12-22T15:02:04.218Z,29.40
2018-12-22T15:04:33.947Z,26.60
2018-12-22T15:07:04.018Z,36.83
2018-12-22T15:09:33.078Z,27.93
2018-12-22T15:12:02.108Z,26.23
2018-12-22T15:14:31.308Z,30.50
2018-12-22T15:17:00.469Z,37.47
2018-12-22T15:19:30.098Z,33.73
2018-12-22T15:22:00.271Z,29.27
2018-12-22T15:24:29.329Z,36.30
2018-12-22T15:26:58.516Z,29.17
2018-12-22T15:29:27.644Z,26.63
2018-12-22T15:31:56.695Z,36.10
2018-12-22T15:34:25.768Z,35.37
2018-12-22T15:36:54.816Z,36.77
2018-12-22T15:39:24.096Z,34.00
2018-12-22T15:41:53.483Z,32.13
2018-12-22T15:44:22.578Z,30.73
2018-12-22T15:46:51.743Z,34.87
2018-12-22T15:49:23.070Z,36.90
2018-12-22T15:51:52.276Z,36.17
2018-12-22T15:54:21.433Z,34.13
2018-12-22T15:56:50.471Z,33.63
2018-12-22T15:59:19.725Z,46.93
2018-12-22T16:01:49.178Z,35.77
2018-12-22T16:04:18.268Z,39.80
2018-12-22T16:06:47.370Z,30.87
2018-12-22T16:09:16.623Z,31.00
2018-12-22T16:12:19.567Z,32.33
2018-12-22T16:14:48.892Z,31.53
2018-12-22T16:17:18.031Z,35.90
2018-12-22T16:19:48.468Z,32.57
2018-12-22T16:22:17.627Z,30.67
2018-12-22T16:24:46.882Z,30.30
2018-12-22T16:27:16.612Z,35.30
2018-12-22T16:29:46.480Z,38.80
2018-12-22T16:32:15.926Z,30.30
2018-12-22T16:34:44.972Z,39.53
2018-12-22T16:37:14.103Z,34.57
2018-12-22T16:39:43.336Z,34.00
2018-12-22T16:42:12.432Z,36.60
2018-12-22T16:44:41.658Z,38.53
2018-12-22T16:47:10.739Z,33.30
2018-12-22T16:49:39.755Z,28.50
2018-12-22T16:52:08.915Z,31.47
2018-12-22T16:54:38.088Z,36.03
2018-12-22T16:57:07.146Z,21.93
2018-12-22T16:59:37.442Z,20.53
2018-12-22T17:02:23.088Z,22.53
2018-12-22T17:04:52.160Z,20.10
2018-12-22T17:07:21.194Z,13.10
2018-12-22T17:09:50.225Z,13.77
2018-12-22T17:12:19.959Z,18.03
2018-12-22T17:14:49.057Z,17.23
2018-12-22T17:17:18.083Z,19.60
2018-12-22T17:19:47.185Z,16.00
2018-12-22T17:22:28.208Z,18.97
2018-12-22T17:25:06.191Z,20.17
2018-12-22T17:27:35.254Z,15.93
2018-12-22T17:30:04.701Z,22.30
2018-12-22T17:32:34.158Z,18.70
2018-12-22T17:35:03.741Z,19.27
2018-12-22T17:37:33.641Z,19.60
2018-12-22T17:43:26.065Z,16.00
2018-12-22T17:45:55.961Z,20.47
2018-12-22T17:48:25.114Z,14.70
2018-12-22T17:54:04.393Z,16.00
2018-12-22T17:56:34.403Z,15.20
2018-12-22T17:59:03.667Z,18.60
2018-12-22T18:01:33.605Z,18.57
2018-12-22T18:04:03.032Z,14.53
2018-12-22T18:06:32.186Z,15.97
2018-12-22T18:09:02.764Z,14.53
2018-12-22T18:11:31.829Z,17.70
2018-12-22T18:14:01.192Z,16.13
2018-12-22T18:16:30.416Z,16.70
2018-12-22T18:18:59.835Z,23.27
2018-12-22T18:21:29.407Z,17.83
2018-12-22T18:23:58.656Z,15.07
2018-12-22T18:26:27.676Z,17.73
2018-12-22T18:28:56.804Z,17.47
2018-12-22T18:31:25.896Z,21.27
2018-12-22T18:33:55.017Z,15.10
2018-12-22T18:36:24.298Z,16.87
2018-12-22T18:38:53.484Z,16.73
2018-12-22T18:41:22.534Z,14.20
2018-12-22T18:43:51.603Z,18.33
2018-12-22T18:46:20.747Z,17.07
2018-12-22T18:48:50.034Z,18.23
2018-12-22T18:51:19.284Z,19.57
2018-12-22T18:53:48.401Z,16.77
2018-12-22T18:56:17.458Z,17.47
2018-12-22T18:58:46.871Z,19.10
2018-12-22T19:01:16.082Z,24.73
2018-12-22T19:03:45.266Z,18.93
2018-12-22T19:06:14.518Z,18.70
2018-12-22T19:08:43.892Z,20.30
2018-12-22T19:11:15.549Z,21.97
2018-12-22T19:13:44.943Z,18.83
2018-12-22T19:16:17.574Z,19.50
2018-12-22T19:18:47.340Z,21.63
2018-12-22T19:21:17.212Z,16.10
2018-12-22T19:23:48.315Z,21.80
2018-12-22T19:26:18.063Z,19.43
2018-12-22T19:28:47.763Z,25.50
2018-12-22T19:31:17.420Z,21.03
2018-12-22T19:33:53.430Z,23.07
2018-12-22T19:36:19.002Z,25.57
2018-12-22T19:38:48.509Z,30.60
2018-12-22T19:41:17.862Z,24.63
2018-12-22T19:43:47.840Z,27.20
2018-12-22T19:46:17.228Z,33.47
2018-12-22T19:48:46.578Z,22.27
2018-12-22T19:51:15.983Z,25.60
2018-12-22T19:53:45.396Z,29.57
2018-12-22T19:56:14.749Z,30.07
2018-12-22T19:58:45.231Z,29.20
2018-12-22T20:01:14.652Z,27.47
2018-12-22T20:03:44.187Z,25.33
2018-12-22T20:06:13.573Z,28.00
2018-12-22T20:08:43.029Z,29.23
2018-12-22T20:11:13.327Z,27.57
2018-12-22T20:13:42.630Z,28.27
2018-12-22T20:16:12.136Z,26.13
2018-12-22T20:18:41.302Z,25.80
2018-12-22T20:21:10.726Z,24.30
2018-12-22T20:23:40.108Z,29.03
2018-12-22T20:26:09.453Z,23.17
2018-12-22T20:28:38.713Z,24.40
2018-12-22T20:31:08.308Z,20.50
2018-12-22T20:33:38.428Z,23.57
2018-12-22T20:36:07.857Z,23.17
2018-12-22T20:38:37.184Z,23.57
2018-12-22T20:41:06.511Z,23.20
2018-12-22T20:43:36.158Z,19.33
2018-12-22T20:46:05.374Z,18.33
2018-12-22T20:48:34.795Z,17.63
2018-12-22T20:51:04.583Z,17.23
2018-12-22T20:53:34.470Z,16.67
2018-12-22T20:56:03.888Z,16.87
2018-12-22T20:58:36.611Z,16.80
2018-12-22T21:01:06.038Z,14.17
2018-12-22T21:03:40.850Z,14.57
2018-12-22T21:06:21.128Z,15.53
2018-12-22T21:08:50.417Z,15.73
2018-12-22T21:11:19.733Z,15.80
2018-12-22T21:13:48.927Z,15.83
2018-12-22T21:16:21.420Z,14.90
2018-12-22T21:22:02.167Z,12.85
2018-12-22T21:24:31.905Z,19.53
2018-12-22T21:27:01.243Z,14.93
2018-12-22T21:29:30.373Z,20.20
2018-12-22T21:31:59.628Z,14.50
2018-12-22T21:34:29.897Z,15.90
2018-12-22T21:36:58.999Z,14.97
2018-12-22T21:39:28.179Z,15.90
2018-12-22T21:41:57.844Z,11.90
2018-12-22T21:44:26.980Z,15.03
2018-12-22T21:46:56.214Z,16.40
2018-12-22T21:49:25.646Z,15.60
2018-12-22T21:51:55.493Z,13.30
2018-12-22T21:54:25.488Z,16.53
2018-12-22T21:56:54.763Z,15.20
2018-12-22T21:59:23.817Z,16.07
2018-12-22T22:01:52.968Z,15.13
2018-12-22T22:04:22.032Z,16.63
2018-12-22T22:06:51.240Z,18.43
2018-12-22T22:09:20.389Z,20.10
2018-12-22T22:11:49.712Z,18.37
2018-12-22T22:14:18.854Z,16.50
2018-12-22T22:16:48.192Z,15.67
2018-12-22T22:19:17.578Z,15.90
2018-12-22T22:21:46.822Z,22.03
2018-12-22T22:24:16.691Z,18.60
2018-12-22T22:26:45.870Z,20.20
2018-12-22T22:29:15.648Z,18.47
2018-12-22T22:31:44.812Z,16.83
2018-12-22T22:34:14.036Z,13.87
2018-12-22T22:36:43.155Z,19.10
2018-12-22T22:39:12.301Z,17.53
2018-12-22T22:41:41.533Z,23.00
2018-12-22T22:44:10.653Z,13.90
2018-12-22T22:46:39.858Z,20.70
2018-12-22T22:49:09.458Z,19.93
2018-12-22T22:51:39.784Z,21.00
2018-12-22T22:54:09.752Z,20.00
2018-12-22T22:56:39.330Z,21.53
2018-12-22T22:59:09.850Z,22.80
2018-12-22T23:01:41.784Z,21.80
2018-12-22T23:04:11.247Z,22.90
2018-12-22T23:06:40.749Z,18.73
2018-12-22T23:09:12.022Z,20.83
2018-12-22T23:11:41.842Z,19.40
2018-12-22T23:14:11.241Z,22.20
2018-12-22T23:16:41.503Z,20.47
2018-12-22T23:19:12.249Z,22.57
2018-12-22T23:21:41.830Z,20.90
2018-12-22T23:24:12.014Z,27.57
2018-12-22T23:26:42.340Z,24.27
2018-12-22T23:29:11.775Z,26.33
2018-12-22T23:31:42.087Z,23.33
2018-12-22T23:34:11.877Z,24.00
2018-12-22T23:36:42.192Z,27.77
2018-12-22T23:39:11.723Z,22.23
2018-12-22T23:41:44.710Z,23.97
2018-12-22T23:44:16.501Z,26.00
2018-12-22T23:46:46.019Z,29.93
2018-12-22T23:49:15.247Z,24.67
2018-12-22T23:51:44.469Z,23.53
2018-12-22T23:54:13.731Z,24.73
2018-12-22T23:56:43.015Z,23.50
2018-12-22T23:59:13.023Z,19.73
